Terminal Aerodrome Forecast
Issued by NWS

Home | Current Version | Previous Version | Text Only | Print | Product List | Glossary On
Versions: 1 2 3 4 5 6 7 8 9 10 11 12 13 14 15 16 17 18
000
FTUS42 KTBW 041700
TAFPIE
TAF
KPIE 041739Z 0418/0518 19014KT P6SM FEW040
     FM042300 21009KT P6SM FEW250
     FM050400 16005KT P6SM FEW250
     FM051700 18011KT P6SM SCT025=

USA.gov is the U.S. government's official web portal to all federal, state and local government web resources and services.